sensor_id;sensor_type;location;lat;lon;timestamp;P1;durP1;ratioP1;P2;durP2;ratioP2
46090;SDS011;31826;53.572;10.170;2022-08-19T00:01:26;16.55;;;9.38;;
46090;SDS011;31826;53.572;10.170;2022-08-19T00:03:54;16.85;;;8.70;;
46090;SDS011;31826;53.572;10.170;2022-08-19T00:06:20;16.73;;;8.23;;
46090;SDS011;31826;53.572;10.170;2022-08-19T00:08:46;16.85;;;8.38;;
46090;SDS011;31826;53.572;10.170;2022-08-19T00:11:13;15.53;;;8.57;;
46090;SDS011;31826;53.572;10.170;2022-08-19T00:13:39;16.70;;;8.33;;
46090;SDS011;31826;53.572;10.170;2022-08-19T00:16:05;15.67;;;8.33;;
46090;SDS011;31826;53.572;10.170;2022-08-19T00:18:31;14.98;;;8.55;;
46090;SDS011;31826;53.572;10.170;2022-08-19T00:20:58;19.27;;;9.90;;
46090;SDS011;31826;53.572;10.170;2022-08-19T00:23:24;16.85;;;9.75;;
46090;SDS011;31826;53.572;10.170;2022-08-19T00:25:51;15.40;;;8.63;;
46090;SDS011;31826;53.572;10.170;2022-08-19T00:28:17;17.95;;;9.43;;
46090;SDS011;31826;53.572;10.170;2022-08-19T00:30:43;18.00;;;9.88;;
46090;SDS011;31826;53.572;10.170;2022-08-19T00:33:09;17.10;;;9.63;;
46090;SDS011;31826;53.572;10.170;2022-08-19T00:35:35;20.70;;;11.27;;
46090;SDS011;31826;53.572;10.170;2022-08-19T00:38:03;20.08;;;11.13;;
46090;SDS011;31826;53.572;10.170;2022-08-19T00:40:30;24.70;;;11.73;;
46090;SDS011;31826;53.572;10.170;2022-08-19T00:42:56;25.60;;;12.40;;
46090;SDS011;31826;53.572;10.170;2022-08-19T00:45:22;22.90;;;12.52;;
46090;SDS011;31826;53.572;10.170;2022-08-19T00:47:55;26.92;;;13.05;;
46090;SDS011;31826;53.572;10.170;2022-08-19T00:50:21;24.67;;;12.77;;
46090;SDS011;31826;53.572;10.170;2022-08-19T00:52:49;24.20;;;12.07;;
46090;SDS011;31826;53.572;10.170;2022-08-19T00:55:18;25.05;;;12.27;;
46090;SDS011;31826;53.572;10.170;2022-08-19T00:57:46;27.13;;;11.90;;
46090;SDS011;31826;53.572;10.170;2022-08-19T01:00:22;24.33;;;11.73;;
46090;SDS011;31826;53.572;10.170;2022-08-19T01:02:50;24.27;;;11.70;;
46090;SDS011;31826;53.572;10.170;2022-08-19T01:05:20;22.70;;;12.75;;
46090;SDS011;31826;53.572;10.170;2022-08-19T01:07:49;26.83;;;13.13;;
46090;SDS011;31826;53.572;10.170;2022-08-19T01:10:17;23.00;;;13.13;;
46090;SDS011;31826;53.572;10.170;2022-08-19T01:12:47;25.50;;;12.13;;
46090;SDS011;31826;53.572;10.170;2022-08-19T01:15:16;23.90;;;13.05;;
46090;SDS011;31826;53.572;10.170;2022-08-19T01:17:43;20.77;;;11.95;;
46090;SDS011;31826;53.572;10.170;2022-08-19T01:20:13;23.08;;;12.27;;
46090;SDS011;31826;53.572;10.170;2022-08-19T01:22:49;25.13;;;12.43;;
46090;SDS011;31826;53.572;10.170;2022-08-19T01:25:18;25.58;;;13.82;;
46090;SDS011;31826;53.572;10.170;2022-08-19T01:27:47;26.27;;;13.10;;
46090;SDS011;31826;53.572;10.170;2022-08-19T01:30:16;25.60;;;12.63;;
46090;SDS011;31826;53.572;10.170;2022-08-19T01:32:45;25.60;;;13.60;;
46090;SDS011;31826;53.572;10.170;2022-08-19T01:35:12;23.30;;;12.52;;
46090;SDS011;31826;53.572;10.170;2022-08-19T01:37:42;23.90;;;12.23;;
46090;SDS011;31826;53.572;10.170;2022-08-19T01:40:20;25.60;;;13.13;;
46090;SDS011;31826;53.572;10.170;2022-08-19T01:42:48;23.55;;;12.60;;
46090;SDS011;31826;53.572;10.170;2022-08-19T01:45:15;23.80;;;12.23;;
46090;SDS011;31826;53.572;10.170;2022-08-19T01:47:42;23.80;;;12.02;;
46090;SDS011;31826;53.572;10.170;2022-08-19T01:50:09;23.77;;;11.63;;
46090;SDS011;31826;53.572;10.170;2022-08-19T01:52:36;23.23;;;12.40;;
46090;SDS011;31826;53.572;10.170;2022-08-19T01:55:04;22.00;;;12.07;;
46090;SDS011;31826;53.572;10.170;2022-08-19T01:57:32;25.80;;;12.68;;
46090;SDS011;31826;53.572;10.170;2022-08-19T01:59:57;19.65;;;11.88;;
46090;SDS011;31826;53.572;10.170;2022-08-19T02:02:24;23.37;;;12.97;;
46090;SDS011;31826;53.572;10.170;2022-08-19T02:04:50;24.97;;;12.50;;
46090;SDS011;31826;53.572;10.170;2022-08-19T02:07:18;22.63;;;12.23;;
46090;SDS011;31826;53.572;10.170;2022-08-19T02:09:46;22.45;;;11.70;;
46090;SDS011;31826;53.572;10.170;2022-08-19T02:12:13;21.85;;;11.77;;
46090;SDS011;31826;53.572;10.170;2022-08-19T02:14:39;20.92;;;12.38;;
46090;SDS011;31826;53.572;10.170;2022-08-19T02:17:05;21.17;;;11.65;;
46090;SDS011;31826;53.572;10.170;2022-08-19T02:19:31;18.92;;;10.52;;
46090;SDS011;31826;53.572;10.170;2022-08-19T02:21:58;23.97;;;11.33;;
46090;SDS011;31826;53.572;10.170;2022-08-19T02:24:25;19.83;;;10.53;;
46090;SDS011;31826;53.572;10.170;2022-08-19T02:26:51;20.48;;;10.73;;
46090;SDS011;31826;53.572;10.170;2022-08-19T02:29:17;20.00;;;10.23;;
46090;SDS011;31826;53.572;10.170;2022-08-19T02:31:43;20.27;;;11.07;;
46090;SDS011;31826;53.572;10.170;2022-08-19T02:34:09;22.77;;;12.00;;
46090;SDS011;31826;53.572;10.170;2022-08-19T02:36:35;22.03;;;11.03;;
46090;SDS011;31826;53.572;10.170;2022-08-19T02:39:01;21.37;;;11.43;;
46090;SDS011;31826;53.572;10.170;2022-08-19T02:41:28;23.10;;;11.48;;
46090;SDS011;31826;53.572;10.170;2022-08-19T02:43:56;24.27;;;12.00;;
46090;SDS011;31826;53.572;10.170;2022-08-19T02:46:27;20.67;;;10.57;;
46090;SDS011;31826;53.572;10.170;2022-08-19T02:48:56;23.30;;;11.40;;
46090;SDS011;31826;53.572;10.170;2022-08-19T02:51:29;24.00;;;12.23;;
46090;SDS011;31826;53.572;10.170;2022-08-19T02:53:58;22.95;;;11.48;;
46090;SDS011;31826;53.572;10.170;2022-08-19T02:56:25;25.67;;;11.75;;
46090;SDS011;31826;53.572;10.170;2022-08-19T02:58:52;21.52;;;10.68;;
46090;SDS011;31826;53.572;10.170;2022-08-19T03:01:20;22.50;;;11.40;;
46090;SDS011;31826;53.572;10.170;2022-08-19T03:03:48;23.15;;;10.90;;
46090;SDS011;31826;53.572;10.170;2022-08-19T03:06:16;22.13;;;11.50;;
46090;SDS011;31826;53.572;10.170;2022-08-19T03:08:43;27.52;;;12.02;;
46090;SDS011;31826;53.572;10.170;2022-08-19T03:11:44;25.30;;;13.17;;
46090;SDS011;31826;53.572;10.170;2022-08-19T03:14:04;26.67;;;13.15;;
46090;SDS011;31826;53.572;10.170;2022-08-19T03:16:32;27.85;;;14.63;;
46090;SDS011;31826;53.572;10.170;2022-08-19T03:19:00;28.88;;;14.38;;
46090;SDS011;31826;53.572;10.170;2022-08-19T03:21:28;28.45;;;13.15;;
46090;SDS011;31826;53.572;10.170;2022-08-19T03:23:57;27.33;;;13.53;;
46090;SDS011;31826;53.572;10.170;2022-08-19T03:26:25;34.78;;;14.43;;
46090;SDS011;31826;53.572;10.170;2022-08-19T03:28:50;30.38;;;13.63;;
46090;SDS011;31826;53.572;10.170;2022-08-19T03:31:20;26.40;;;12.88;;
46090;SDS011;31826;53.572;10.170;2022-08-19T03:33:47;28.52;;;13.05;;
46090;SDS011;31826;53.572;10.170;2022-08-19T03:36:15;33.78;;;13.68;;
46090;SDS011;31826;53.572;10.170;2022-08-19T03:38:47;28.50;;;12.82;;
46090;SDS011;31826;53.572;10.170;2022-08-19T03:41:29;29.02;;;12.93;;
46090;SDS011;31826;53.572;10.170;2022-08-19T03:43:57;26.55;;;12.43;;
46090;SDS011;31826;53.572;10.170;2022-08-19T03:46:25;24.10;;;11.73;;
46090;SDS011;31826;53.572;10.170;2022-08-19T03:48:52;32.75;;;13.70;;
46090;SDS011;31826;53.572;10.170;2022-08-19T03:51:21;23.43;;;12.50;;
46090;SDS011;31826;53.572;10.170;2022-08-19T03:53:51;25.20;;;11.57;;
46090;SDS011;31826;53.572;10.170;2022-08-19T03:56:18;27.42;;;12.35;;
46090;SDS011;31826;53.572;10.170;2022-08-19T03:58:44;24.90;;;12.20;;
46090;SDS011;31826;53.572;10.170;2022-08-19T04:01:11;28.15;;;12.25;;
46090;SDS011;31826;53.572;10.170;2022-08-19T04:03:40;27.33;;;12.00;;
46090;SDS011;31826;53.572;10.170;2022-08-19T04:06:12;23.05;;;12.13;;
46090;SDS011;31826;53.572;10.170;2022-08-19T04:08:40;27.75;;;12.23;;
46090;SDS011;31826;53.572;10.170;2022-08-19T04:11:12;26.08;;;11.57;;
46090;SDS011;31826;53.572;10.170;2022-08-19T04:13:40;27.05;;;12.27;;
46090;SDS011;31826;53.572;10.170;2022-08-19T04:16:08;22.48;;;10.98;;
46090;SDS011;31826;53.572;10.170;2022-08-19T04:18:35;25.40;;;12.25;;
46090;SDS011;31826;53.572;10.170;2022-08-19T04:21:02;23.33;;;11.20;;
46090;SDS011;31826;53.572;10.170;2022-08-19T04:23:29;21.20;;;10.53;;
46090;SDS011;31826;53.572;10.170;2022-08-19T04:25:55;21.27;;;11.60;;
46090;SDS011;31826;53.572;10.170;2022-08-19T04:28:21;23.05;;;10.95;;
46090;SDS011;31826;53.572;10.170;2022-08-19T04:30:48;23.42;;;11.68;;
46090;SDS011;31826;53.572;10.170;2022-08-19T04:33:17;21.75;;;10.85;;
46090;SDS011;31826;53.572;10.170;2022-08-19T04:35:45;25.23;;;11.32;;
46090;SDS011;31826;53.572;10.170;2022-08-19T04:38:13;22.20;;;11.50;;
46090;SDS011;31826;53.572;10.170;2022-08-19T04:40:44;22.55;;;10.93;;
46090;SDS011;31826;53.572;10.170;2022-08-19T04:43:31;20.23;;;9.87;;
46090;SDS011;31826;53.572;10.170;2022-08-19T04:46:03;26.05;;;11.85;;
46090;SDS011;31826;53.572;10.170;2022-08-19T04:48:39;25.77;;;11.93;;
46090;SDS011;31826;53.572;10.170;2022-08-19T04:51:06;25.67;;;12.33;;
46090;SDS011;31826;53.572;10.170;2022-08-19T04:53:36;23.33;;;11.35;;
46090;SDS011;31826;53.572;10.170;2022-08-19T04:56:04;23.88;;;11.93;;
46090;SDS011;31826;53.572;10.170;2022-08-19T04:58:35;27.00;;;13.13;;
46090;SDS011;31826;53.572;10.170;2022-08-19T05:01:03;30.45;;;15.98;;
46090;SDS011;31826;53.572;10.170;2022-08-19T05:03:29;26.58;;;12.07;;
46090;SDS011;31826;53.572;10.170;2022-08-19T05:06:03;25.85;;;13.23;;
46090;SDS011;31826;53.572;10.170;2022-08-19T05:08:32;28.85;;;13.38;;
46090;SDS011;31826;53.572;10.170;2022-08-19T05:10:58;23.10;;;12.53;;
46090;SDS011;31826;53.572;10.170;2022-08-19T05:13:25;26.37;;;13.13;;
46090;SDS011;31826;53.572;10.170;2022-08-19T05:15:55;25.65;;;12.63;;
46090;SDS011;31826;53.572;10.170;2022-08-19T05:18:22;27.65;;;12.75;;
46090;SDS011;31826;53.572;10.170;2022-08-19T05:21:11;23.45;;;12.13;;
46090;SDS011;31826;53.572;10.170;2022-08-19T05:23:57;27.13;;;13.00;;
46090;SDS011;31826;53.572;10.170;2022-08-19T05:26:23;24.92;;;11.95;;
46090;SDS011;31826;53.572;10.170;2022-08-19T05:28:51;28.50;;;12.80;;
46090;SDS011;31826;53.572;10.170;2022-08-19T05:31:18;25.98;;;12.00;;
46090;SDS011;31826;53.572;10.170;2022-08-19T05:33:44;27.58;;;12.98;;
46090;SDS011;31826;53.572;10.170;2022-08-19T05:36:10;28.80;;;13.32;;
46090;SDS011;31826;53.572;10.170;2022-08-19T05:38:36;27.40;;;13.77;;
46090;SDS011;31826;53.572;10.170;2022-08-19T05:41:12;29.45;;;13.48;;
46090;SDS011;31826;53.572;10.170;2022-08-19T05:43:39;25.77;;;12.88;;
46090;SDS011;31826;53.572;10.170;2022-08-19T05:46:05;31.38;;;13.00;;
46090;SDS011;31826;53.572;10.170;2022-08-19T05:48:32;23.95;;;12.45;;
46090;SDS011;31826;53.572;10.170;2022-08-19T05:51:03;32.28;;;14.07;;
46090;SDS011;31826;53.572;10.170;2022-08-19T05:53:31;29.05;;;16.00;;
46090;SDS011;31826;53.572;10.170;2022-08-19T05:55:58;30.33;;;14.70;;
46090;SDS011;31826;53.572;10.170;2022-08-19T05:58:36;30.13;;;13.67;;
46090;SDS011;31826;53.572;10.170;2022-08-19T06:01:03;29.13;;;13.90;;
46090;SDS011;31826;53.572;10.170;2022-08-19T06:03:36;27.67;;;13.18;;
46090;SDS011;31826;53.572;10.170;2022-08-19T06:06:05;28.98;;;13.57;;
46090;SDS011;31826;53.572;10.170;2022-08-19T06:08:32;26.60;;;13.63;;
46090;SDS011;31826;53.572;10.170;2022-08-19T06:11:12;29.67;;;12.80;;
46090;SDS011;31826;53.572;10.170;2022-08-19T06:13:39;24.33;;;12.23;;
46090;SDS011;31826;53.572;10.170;2022-08-19T06:16:05;26.40;;;12.30;;
46090;SDS011;31826;53.572;10.170;2022-08-19T06:18:31;25.37;;;13.43;;
46090;SDS011;31826;53.572;10.170;2022-08-19T06:20:58;29.95;;;14.38;;
46090;SDS011;31826;53.572;10.170;2022-08-19T06:23:24;30.65;;;15.95;;
46090;SDS011;31826;53.572;10.170;2022-08-19T06:25:50;31.50;;;13.68;;
46090;SDS011;31826;53.572;10.170;2022-08-19T06:28:16;30.08;;;13.98;;
46090;SDS011;31826;53.572;10.170;2022-08-19T06:30:42;29.73;;;13.65;;
46090;SDS011;31826;53.572;10.170;2022-08-19T06:33:07;29.33;;;14.13;;
46090;SDS011;31826;53.572;10.170;2022-08-19T06:35:37;30.23;;;13.73;;
46090;SDS011;31826;53.572;10.170;2022-08-19T06:38:04;25.60;;;12.68;;
46090;SDS011;31826;53.572;10.170;2022-08-19T06:40:30;26.23;;;12.57;;
46090;SDS011;31826;53.572;10.170;2022-08-19T06:42:56;27.75;;;12.90;;
46090;SDS011;31826;53.572;10.170;2022-08-19T06:45:23;26.15;;;13.07;;
46090;SDS011;31826;53.572;10.170;2022-08-19T06:47:49;25.70;;;13.30;;
46090;SDS011;31826;53.572;10.170;2022-08-19T06:50:19;29.53;;;13.17;;
46090;SDS011;31826;53.572;10.170;2022-08-19T06:52:44;28.43;;;12.97;;
46090;SDS011;31826;53.572;10.170;2022-08-19T06:55:11;23.02;;;11.82;;
46090;SDS011;31826;53.572;10.170;2022-08-19T06:57:37;24.65;;;12.15;;
46090;SDS011;31826;53.572;10.170;2022-08-19T07:00:04;28.20;;;12.30;;
46090;SDS011;31826;53.572;10.170;2022-08-19T07:02:35;23.52;;;11.27;;
46090;SDS011;31826;53.572;10.170;2022-08-19T07:05:02;23.70;;;10.82;;
46090;SDS011;31826;53.572;10.170;2022-08-19T07:07:29;25.63;;;11.35;;
46090;SDS011;31826;53.572;10.170;2022-08-19T07:09:56;22.35;;;11.85;;
46090;SDS011;31826;53.572;10.170;2022-08-19T07:12:22;28.97;;;11.97;;
46090;SDS011;31826;53.572;10.170;2022-08-19T07:14:48;22.83;;;10.10;;
46090;SDS011;31826;53.572;10.170;2022-08-19T07:17:14;21.23;;;10.20;;
46090;SDS011;31826;53.572;10.170;2022-08-19T07:19:40;23.73;;;11.30;;
46090;SDS011;31826;53.572;10.170;2022-08-19T07:22:07;22.63;;;11.60;;
46090;SDS011;31826;53.572;10.170;2022-08-19T07:24:35;20.92;;;10.38;;
46090;SDS011;31826;53.572;10.170;2022-08-19T07:27:02;23.77;;;10.48;;
46090;SDS011;31826;53.572;10.170;2022-08-19T07:29:30;22.38;;;10.90;;
46090;SDS011;31826;53.572;10.170;2022-08-19T07:31:59;21.40;;;10.65;;
46090;SDS011;31826;53.572;10.170;2022-08-19T07:34:26;22.58;;;10.95;;
46090;SDS011;31826;53.572;10.170;2022-08-19T07:36:54;23.17;;;10.80;;
46090;SDS011;31826;53.572;10.170;2022-08-19T07:39:30;23.95;;;11.35;;
46090;SDS011;31826;53.572;10.170;2022-08-19T07:41:58;24.00;;;11.63;;
46090;SDS011;31826;53.572;10.170;2022-08-19T07:44:26;23.60;;;12.20;;
46090;SDS011;31826;53.572;10.170;2022-08-19T07:46:54;23.73;;;12.03;;
46090;SDS011;31826;53.572;10.170;2022-08-19T07:49:21;25.38;;;11.95;;
46090;SDS011;31826;53.572;10.170;2022-08-19T07:51:52;29.55;;;13.50;;
46090;SDS011;31826;53.572;10.170;2022-08-19T07:54:21;31.98;;;13.65;;
46090;SDS011;31826;53.572;10.170;2022-08-19T07:56:48;27.55;;;13.73;;
46090;SDS011;31826;53.572;10.170;2022-08-19T07:59:16;31.83;;;14.05;;
46090;SDS011;31826;53.572;10.170;2022-08-19T08:01:42;30.75;;;13.35;;
46090;SDS011;31826;53.572;10.170;2022-08-19T08:04:09;32.63;;;13.18;;
46090;SDS011;31826;53.572;10.170;2022-08-19T08:06:53;28.52;;;13.93;;
46090;SDS011;31826;53.572;10.170;2022-08-19T08:09:38;28.70;;;12.97;;
46090;SDS011;31826;53.572;10.170;2022-08-19T08:12:10;28.90;;;13.80;;
46090;SDS011;31826;53.572;10.170;2022-08-19T08:14:50;31.58;;;12.98;;
46090;SDS011;31826;53.572;10.170;2022-08-19T08:17:18;25.95;;;12.45;;
46090;SDS011;31826;53.572;10.170;2022-08-19T08:19:46;30.47;;;13.07;;
46090;SDS011;31826;53.572;10.170;2022-08-19T08:22:15;28.93;;;12.10;;
46090;SDS011;31826;53.572;10.170;2022-08-19T08:25:16;33.50;;;13.30;;
46090;SDS011;31826;53.572;10.170;2022-08-19T08:27:44;31.00;;;13.63;;
46090;SDS011;31826;53.572;10.170;2022-08-19T08:30:15;27.47;;;13.20;;
46090;SDS011;31826;53.572;10.170;2022-08-19T08:32:44;29.33;;;13.45;;
46090;SDS011;31826;53.572;10.170;2022-08-19T08:35:12;31.38;;;14.23;;
46090;SDS011;31826;53.572;10.170;2022-08-19T08:37:41;31.50;;;14.13;;
46090;SDS011;31826;53.572;10.170;2022-08-19T08:43:39;29.83;;;13.73;;
46090;SDS011;31826;53.572;10.170;2022-08-19T08:45:53;31.15;;;13.73;;
46090;SDS011;31826;53.572;10.170;2022-08-19T08:51:23;42.25;;;13.90;;
46090;SDS011;31826;53.572;10.170;2022-08-19T08:53:52;27.00;;;13.57;;
46090;SDS011;31826;53.572;10.170;2022-08-19T08:56:19;25.63;;;12.18;;
46090;SDS011;31826;53.572;10.170;2022-08-19T08:58:54;26.05;;;12.45;;
46090;SDS011;31826;53.572;10.170;2022-08-19T09:01:27;25.58;;;12.10;;
46090;SDS011;31826;53.572;10.170;2022-08-19T09:03:53;28.20;;;12.13;;
46090;SDS011;31826;53.572;10.170;2022-08-19T09:14:48;26.52;;;12.75;;
46090;SDS011;31826;53.572;10.170;2022-08-19T09:17:20;24.13;;;12.05;;
46090;SDS011;31826;53.572;10.170;2022-08-19T09:19:52;27.02;;;12.45;;
46090;SDS011;31826;53.572;10.170;2022-08-19T09:22:34;22.63;;;11.23;;
46090;SDS011;31826;53.572;10.170;2022-08-19T09:25:02;24.05;;;11.52;;
46090;SDS011;31826;53.572;10.170;2022-08-19T09:27:30;26.52;;;12.88;;
46090;SDS011;31826;53.572;10.170;2022-08-19T09:29:56;23.20;;;11.95;;
46090;SDS011;31826;53.572;10.170;2022-08-19T09:32:22;27.08;;;12.98;;
46090;SDS011;31826;53.572;10.170;2022-08-19T09:34:49;24.70;;;11.68;;
46090;SDS011;31826;53.572;10.170;2022-08-19T09:37:15;25.48;;;11.65;;
46090;SDS011;31826;53.572;10.170;2022-08-19T09:39:40;24.42;;;11.98;;
46090;SDS011;31826;53.572;10.170;2022-08-19T09:42:07;24.17;;;12.60;;
46090;SDS011;31826;53.572;10.170;2022-08-19T09:44:41;27.42;;;11.30;;
46090;SDS011;31826;53.572;10.170;2022-08-19T09:47:11;23.57;;;12.17;;
46090;SDS011;31826;53.572;10.170;2022-08-19T09:49:38;27.45;;;12.43;;
46090;SDS011;31826;53.572;10.170;2022-08-19T09:52:04;23.10;;;10.90;;
46090;SDS011;31826;53.572;10.170;2022-08-19T09:54:32;21.48;;;11.57;;
46090;SDS011;31826;53.572;10.170;2022-08-19T09:56:59;23.23;;;11.18;;
46090;SDS011;31826;53.572;10.170;2022-08-19T09:59:27;25.23;;;11.13;;
46090;SDS011;31826;53.572;10.170;2022-08-19T10:01:53;24.55;;;11.50;;
46090;SDS011;31826;53.572;10.170;2022-08-19T10:04:20;23.85;;;11.65;;
46090;SDS011;31826;53.572;10.170;2022-08-19T10:06:47;25.65;;;11.65;;
46090;SDS011;31826;53.572;10.170;2022-08-19T10:09:15;25.15;;;11.60;;
46090;SDS011;31826;53.572;10.170;2022-08-19T10:11:43;24.27;;;11.63;;
46090;SDS011;31826;53.572;10.170;2022-08-19T10:14:14;22.75;;;11.77;;
46090;SDS011;31826;53.572;10.170;2022-08-19T10:16:42;24.00;;;11.98;;
46090;SDS011;31826;53.572;10.170;2022-08-19T10:19:08;25.15;;;12.15;;
46090;SDS011;31826;53.572;10.170;2022-08-19T10:21:34;22.70;;;11.43;;
46090;SDS011;31826;53.572;10.170;2022-08-19T10:24:01;25.50;;;12.43;;
46090;SDS011;31826;53.572;10.170;2022-08-19T10:26:36;23.30;;;12.43;;
46090;SDS011;31826;53.572;10.170;2022-08-19T10:29:03;22.83;;;11.52;;
46090;SDS011;31826;53.572;10.170;2022-08-19T10:31:31;24.52;;;11.73;;
46090;SDS011;31826;53.572;10.170;2022-08-19T10:33:59;28.13;;;12.70;;
46090;SDS011;31826;53.572;10.170;2022-08-19T10:36:27;24.17;;;12.50;;
46090;SDS011;31826;53.572;10.170;2022-08-19T10:38:58;24.50;;;11.63;;
46090;SDS011;31826;53.572;10.170;2022-08-19T10:41:31;21.55;;;11.07;;
46090;SDS011;31826;53.572;10.170;2022-08-19T10:43:59;21.92;;;11.10;;
46090;SDS011;31826;53.572;10.170;2022-08-19T10:46:27;22.73;;;11.07;;
46090;SDS011;31826;53.572;10.170;2022-08-19T10:48:57;21.77;;;9.50;;
46090;SDS011;31826;53.572;10.170;2022-08-19T10:51:27;22.90;;;10.65;;
46090;SDS011;31826;53.572;10.170;2022-08-19T10:54:12;22.85;;;10.73;;
46090;SDS011;31826;53.572;10.170;2022-08-19T10:56:37;22.73;;;9.88;;
46090;SDS011;31826;53.572;10.170;2022-08-19T10:59:27;23.52;;;11.15;;
46090;SDS011;31826;53.572;10.170;2022-08-19T11:01:58;26.17;;;12.07;;
46090;SDS011;31826;53.572;10.170;2022-08-19T11:04:24;19.97;;;10.23;;
46090;SDS011;31826;53.572;10.170;2022-08-19T11:06:50;23.02;;;11.13;;
46090;SDS011;31826;53.572;10.170;2022-08-19T11:09:18;21.02;;;11.15;;
46090;SDS011;31826;53.572;10.170;2022-08-19T11:11:46;21.52;;;10.55;;
46090;SDS011;31826;53.572;10.170;2022-08-19T11:14:15;22.80;;;11.47;;
46090;SDS011;31826;53.572;10.170;2022-08-19T11:16:43;24.75;;;11.65;;
46090;SDS011;31826;53.572;10.170;2022-08-19T11:19:09;21.10;;;10.85;;
46090;SDS011;31826;53.572;10.170;2022-08-19T11:21:38;23.83;;;10.65;;
46090;SDS011;31826;53.572;10.170;2022-08-19T11:24:06;20.80;;;11.48;;
46090;SDS011;31826;53.572;10.170;2022-08-19T11:26:39;21.73;;;10.57;;
46090;SDS011;31826;53.572;10.170;2022-08-19T11:29:07;22.77;;;11.60;;
46090;SDS011;31826;53.572;10.170;2022-08-19T11:31:39;23.33;;;11.30;;
46090;SDS011;31826;53.572;10.170;2022-08-19T11:34:08;24.77;;;12.00;;
46090;SDS011;31826;53.572;10.170;2022-08-19T11:36:36;21.42;;;10.55;;
46090;SDS011;31826;53.572;10.170;2022-08-19T11:39:05;22.42;;;11.35;;
46090;SDS011;31826;53.572;10.170;2022-08-19T11:41:32;24.80;;;12.10;;
46090;SDS011;31826;53.572;10.170;2022-08-19T11:43:58;23.88;;;12.38;;
46090;SDS011;31826;53.572;10.170;2022-08-19T11:46:25;23.77;;;11.93;;
46090;SDS011;31826;53.572;10.170;2022-08-19T11:48:54;22.23;;;10.07;;
46090;SDS011;31826;53.572;10.170;2022-08-19T11:51:22;22.30;;;10.70;;
46090;SDS011;31826;53.572;10.170;2022-08-19T11:53:50;21.48;;;10.68;;
46090;SDS011;31826;53.572;10.170;2022-08-19T11:56:16;21.10;;;10.68;;
46090;SDS011;31826;53.572;10.170;2022-08-19T11:58:43;23.50;;;10.65;;
46090;SDS011;31826;53.572;10.170;2022-08-19T12:01:13;25.00;;;11.52;;
46090;SDS011;31826;53.572;10.170;2022-08-19T12:03:41;22.98;;;10.55;;
46090;SDS011;31826;53.572;10.170;2022-08-19T12:06:09;22.77;;;11.07;;
46090;SDS011;31826;53.572;10.170;2022-08-19T12:08:42;21.00;;;10.90;;
46090;SDS011;31826;53.572;10.170;2022-08-19T12:11:09;21.33;;;10.27;;
46090;SDS011;31826;53.572;10.170;2022-08-19T12:13:37;18.63;;;10.25;;
46090;SDS011;31826;53.572;10.170;2022-08-19T12:16:23;19.30;;;10.20;;
46090;SDS011;31826;53.572;10.170;2022-08-19T12:18:51;17.98;;;10.02;;
46090;SDS011;31826;53.572;10.170;2022-08-19T12:21:20;21.25;;;10.48;;
46090;SDS011;31826;53.572;10.170;2022-08-19T12:23:49;18.60;;;9.93;;
46090;SDS011;31826;53.572;10.170;2022-08-19T12:26:16;16.55;;;8.85;;
46090;SDS011;31826;53.572;10.170;2022-08-19T12:28:42;22.52;;;11.55;;
46090;SDS011;31826;53.572;10.170;2022-08-19T12:31:09;22.95;;;11.55;;
46090;SDS011;31826;53.572;10.170;2022-08-19T12:33:39;20.33;;;11.00;;
46090;SDS011;31826;53.572;10.170;2022-08-19T12:36:06;20.77;;;10.48;;
46090;SDS011;31826;53.572;10.170;2022-08-19T12:38:35;19.38;;;9.73;;
46090;SDS011;31826;53.572;10.170;2022-08-19T12:41:02;16.45;;;9.27;;
46090;SDS011;31826;53.572;10.170;2022-08-19T12:43:31;16.80;;;9.38;;
46090;SDS011;31826;53.572;10.170;2022-08-19T12:45:57;16.55;;;8.82;;
46090;SDS011;31826;53.572;10.170;2022-08-19T12:48:23;19.90;;;11.07;;
46090;SDS011;31826;53.572;10.170;2022-08-19T12:50:48;18.83;;;8.95;;
46090;SDS011;31826;53.572;10.170;2022-08-19T12:53:14;15.40;;;8.05;;
46090;SDS011;31826;53.572;10.170;2022-08-19T12:55:40;15.38;;;8.30;;
46090;SDS011;31826;53.572;10.170;2022-08-19T12:58:07;14.25;;;6.93;;
46090;SDS011;31826;53.572;10.170;2022-08-19T13:00:33;15.45;;;8.18;;
46090;SDS011;31826;53.572;10.170;2022-08-19T13:02:59;15.20;;;8.50;;
46090;SDS011;31826;53.572;10.170;2022-08-19T13:05:27;13.95;;;7.45;;
46090;SDS011;31826;53.572;10.170;2022-08-19T13:07:55;15.15;;;7.28;;
46090;SDS011;31826;53.572;10.170;2022-08-19T13:10:25;13.65;;;7.22;;
46090;SDS011;31826;53.572;10.170;2022-08-19T13:12:54;12.68;;;6.95;;
46090;SDS011;31826;53.572;10.170;2022-08-19T13:15:21;14.38;;;7.13;;
46090;SDS011;31826;53.572;10.170;2022-08-19T13:17:48;12.70;;;6.88;;
46090;SDS011;31826;53.572;10.170;2022-08-19T13:20:16;14.73;;;7.60;;
46090;SDS011;31826;53.572;10.170;2022-08-19T13:22:44;13.10;;;7.25;;
46090;SDS011;31826;53.572;10.170;2022-08-19T13:25:10;14.18;;;7.43;;
46090;SDS011;31826;53.572;10.170;2022-08-19T13:27:37;14.10;;;7.57;;
46090;SDS011;31826;53.572;10.170;2022-08-19T13:30:04;14.77;;;7.60;;
46090;SDS011;31826;53.572;10.170;2022-08-19T13:32:49;14.57;;;7.72;;
46090;SDS011;31826;53.572;10.170;2022-08-19T13:35:33;15.02;;;7.55;;
46090;SDS011;31826;53.572;10.170;2022-08-19T13:37:59;15.80;;;7.68;;
46090;SDS011;31826;53.572;10.170;2022-08-19T13:40:26;15.70;;;7.65;;
46090;SDS011;31826;53.572;10.170;2022-08-19T13:42:52;15.70;;;8.55;;
46090;SDS011;31826;53.572;10.170;2022-08-19T13:45:24;16.48;;;9.50;;
46090;SDS011;31826;53.572;10.170;2022-08-19T13:47:52;16.88;;;10.13;;
46090;SDS011;31826;53.572;10.170;2022-08-19T13:50:21;17.95;;;10.43;;
46090;SDS011;31826;53.572;10.170;2022-08-19T13:52:52;14.10;;;8.10;;
46090;SDS011;31826;53.572;10.170;2022-08-19T13:55:18;17.13;;;8.83;;
46090;SDS011;31826;53.572;10.170;2022-08-19T13:57:45;16.23;;;8.43;;
46090;SDS011;31826;53.572;10.170;2022-08-19T14:00:12;14.80;;;9.17;;
46090;SDS011;31826;53.572;10.170;2022-08-19T14:02:43;14.13;;;8.07;;
46090;SDS011;31826;53.572;10.170;2022-08-19T14:05:15;15.90;;;8.20;;
46090;SDS011;31826;53.572;10.170;2022-08-19T14:07:41;14.60;;;7.70;;
46090;SDS011;31826;53.572;10.170;2022-08-19T14:10:08;13.70;;;7.60;;
46090;SDS011;31826;53.572;10.170;2022-08-19T14:12:35;13.88;;;7.53;;
46090;SDS011;31826;53.572;10.170;2022-08-19T14:15:02;12.48;;;6.93;;
46090;SDS011;31826;53.572;10.170;2022-08-19T14:17:29;12.75;;;7.00;;
46090;SDS011;31826;53.572;10.170;2022-08-19T14:19:59;13.50;;;7.20;;
46090;SDS011;31826;53.572;10.170;2022-08-19T14:22:33;12.65;;;7.22;;
46090;SDS011;31826;53.572;10.170;2022-08-19T14:25:00;12.95;;;6.80;;
46090;SDS011;31826;53.572;10.170;2022-08-19T14:27:26;12.83;;;7.10;;
46090;SDS011;31826;53.572;10.170;2022-08-19T14:29:52;13.67;;;7.30;;
46090;SDS011;31826;53.572;10.170;2022-08-19T14:32:17;12.10;;;6.72;;
46090;SDS011;31826;53.572;10.170;2022-08-19T14:34:43;14.00;;;7.57;;